createdAt,value
2022-08-05T00:00:30.589Z,21.44
2022-08-05T00:02:32.700Z,21.39
2022-08-05T00:04:35.002Z,21.40
2022-08-05T00:06:37.233Z,21.41
2022-08-05T00:08:40.068Z,21.37
2022-08-05T00:10:42.265Z,21.34
2022-08-05T00:12:55.817Z,21.32
2022-08-05T00:14:58.764Z,21.32
2022-08-05T00:17:18.529Z,21.29
2022-08-05T00:19:33.684Z,21.28
2022-08-05T00:21:47.681Z,21.25
2022-08-05T00:23:53.725Z,21.20
2022-08-05T00:26:12.005Z,21.13
2022-08-05T00:28:14.414Z,21.08
2022-08-05T00:30:16.535Z,21.09
2022-08-05T00:32:19.877Z,21.06
2022-08-05T00:34:55.856Z,21.04
2022-08-05T00:37:09.985Z,21.03
2022-08-05T00:39:06.343Z,20.97
2022-08-05T00:41:27.899Z,20.93
2022-08-05T00:43:50.031Z,20.82
2022-08-05T00:45:52.274Z,20.85
2022-08-05T00:47:57.740Z,20.86
2022-08-05T00:50:10.747Z,20.86
2022-08-05T00:52:12.902Z,20.84
2022-08-05T00:54:15.520Z,20.86
2022-08-05T00:56:22.741Z,20.80
2022-08-05T00:58:27.343Z,20.79
2022-08-05T01:00:31.916Z,20.78
2022-08-05T01:02:35.695Z,20.72
2022-08-05T01:04:37.608Z,20.69
2022-08-05T01:06:48.611Z,20.67
2022-08-05T01:08:51.148Z,20.69
2022-08-05T01:11:22.543Z,20.67
2022-08-05T01:14:03.008Z,20.65
2022-08-05T01:16:10.598Z,20.62
2022-08-05T01:18:16.546Z,20.51
2022-08-05T01:20:52.093Z,20.49
2022-08-05T01:23:15.147Z,20.53
2022-08-05T01:25:17.985Z,20.39
2022-08-05T01:27:50.508Z,20.29
2022-08-05T01:30:04.105Z,20.32
2022-08-05T01:32:12.401Z,20.27
2022-08-05T01:34:20.257Z,20.24
2022-08-05T01:36:29.748Z,20.26
2022-08-05T01:38:33.835Z,20.19
2022-08-05T01:40:37.621Z,20.21
2022-08-05T01:42:44.737Z,20.16
2022-08-05T01:44:53.895Z,20.17
2022-08-05T01:46:59.092Z,20.06
2022-08-05T01:49:02.381Z,20.11
2022-08-05T01:51:25.275Z,20.12
2022-08-05T01:53:57.484Z,20.10
2022-08-05T01:56:00.062Z,20.05
2022-08-05T01:58:40.379Z,20.03
2022-08-05T02:00:51.584Z,19.89
2022-08-05T02:03:24.263Z,19.98
2022-08-05T02:05:46.186Z,19.98
2022-08-05T02:08:08.848Z,19.86
2022-08-05T02:10:17.503Z,19.81
2022-08-05T02:12:46.693Z,19.80
2022-08-05T02:15:05.325Z,19.85
2022-08-05T02:18:30.759Z,19.82
2022-08-05T02:20:48.636Z,19.87
2022-08-05T02:23:12.604Z,19.80
2022-08-05T02:25:49.867Z,19.80
2022-08-05T02:27:59.905Z,19.79
2022-08-05T02:30:03.403Z,19.79
2022-08-05T02:32:08.975Z,19.77
2022-08-05T02:34:15.752Z,19.70
2022-08-05T02:36:23.938Z,19.64
2022-08-05T02:38:35.507Z,19.66
2022-08-05T02:41:01.554Z,19.66
2022-08-05T02:43:34.463Z,19.68
2022-08-05T02:45:59.042Z,19.68
2022-08-05T02:48:11.779Z,19.66
2022-08-05T02:50:18.007Z,19.68
2022-08-05T02:52:30.012Z,19.67
2022-08-05T02:54:37.019Z,19.64
2022-08-05T02:56:41.990Z,19.66
2022-08-05T02:58:51.474Z,19.65
2022-08-05T03:01:01.739Z,19.61
2022-08-05T03:03:10.191Z,19.56
2022-08-05T03:05:14.057Z,19.64
2022-08-05T03:07:24.718Z,19.49
2022-08-05T03:09:51.762Z,19.50
2022-08-05T03:11:57.962Z,19.51
2022-08-05T03:14:02.767Z,19.46
2022-08-05T03:16:05.945Z,19.44
2022-08-05T03:18:11.763Z,19.44
2022-08-05T03:20:13.921Z,19.43
2022-08-05T03:22:19.002Z,19.42
2022-08-05T03:24:33.958Z,19.41
2022-08-05T03:26:38.214Z,19.29
2022-08-05T03:28:49.300Z,19.23
2022-08-05T03:30:55.236Z,19.10
2022-08-05T03:32:57.430Z,19.17
2022-08-05T03:35:00.159Z,19.14
2022-08-05T03:37:04.381Z,19.20
2022-08-05T03:39:08.128Z,19.17
2022-08-05T03:41:16.847Z,19.18
2022-08-05T03:44:09.235Z,19.12
2022-08-05T03:45:57.129Z,19.15
2022-08-05T03:48:00.762Z,19.13
2022-08-05T03:50:02.739Z,19.12
2022-08-05T03:52:49.296Z,19.11
2022-08-05T03:55:53.476Z,19.06
2022-08-05T03:57:00.134Z,19.04
2022-08-05T03:59:05.797Z,19.02
2022-08-05T04:01:11.261Z,19.02
2022-08-05T04:03:28.412Z,19.01
2022-08-05T04:05:34.590Z,19.03
2022-08-05T04:07:58.194Z,19.03
2022-08-05T04:10:03.177Z,18.99
2022-08-05T04:12:05.714Z,19.01
2022-08-05T04:14:30.035Z,18.93
2022-08-05T04:16:33.404Z,18.95
2022-08-05T04:18:36.152Z,19.04
2022-08-05T04:20:45.359Z,19.00
2022-08-05T04:22:47.343Z,19.04
2022-08-05T04:24:52.873Z,19.03
2022-08-05T04:26:54.978Z,19.01
2022-08-05T04:29:01.253Z,18.99
2022-08-05T04:31:10.508Z,18.94
2022-08-05T04:33:13.725Z,18.97
2022-08-05T04:35:17.553Z,18.93
2022-08-05T04:37:21.643Z,18.91
2022-08-05T04:39:43.483Z,18.93
2022-08-05T04:41:48.241Z,18.91
2022-08-05T04:43:52.805Z,18.92
2022-08-05T04:45:55.655Z,18.92
2022-08-05T04:48:16.413Z,18.86
2022-08-05T04:50:37.193Z,18.83
2022-08-05T04:52:39.416Z,18.82
2022-08-05T04:54:41.549Z,18.85
2022-08-05T04:56:43.600Z,18.82
2022-08-05T04:58:51.661Z,18.87
2022-08-05T05:00:54.575Z,18.83
2022-08-05T05:03:00.219Z,18.86
2022-08-05T05:05:26.296Z,18.86
2022-08-05T05:07:29.733Z,18.83
2022-08-05T05:09:34.643Z,18.82
2022-08-05T05:11:48.556Z,18.83
2022-08-05T05:13:57.562Z,18.82
2022-08-05T05:16:06.092Z,18.85
2022-08-05T05:18:09.459Z,18.82
2022-08-05T05:20:13.097Z,18.82
2022-08-05T05:22:24.320Z,18.81
2022-08-05T05:24:56.209Z,18.82
2022-08-05T05:26:51.834Z,18.82
2022-08-05T05:28:53.807Z,18.79
2022-08-05T05:30:59.665Z,18.79
2022-08-05T05:33:16.624Z,18.79
2022-08-05T05:35:19.960Z,18.77
2022-08-05T05:37:22.017Z,18.71
2022-08-05T05:39:39.191Z,18.71
2022-08-05T05:41:44.929Z,18.68
2022-08-05T05:43:58.556Z,18.66
2022-08-05T05:46:02.170Z,18.61
2022-08-05T05:48:08.410Z,18.56
2022-08-05T05:50:16.336Z,18.57
2022-08-05T05:52:28.687Z,18.54
2022-08-05T05:54:49.812Z,18.61
2022-08-05T05:56:52.825Z,18.57
2022-08-05T05:58:54.692Z,18.57
2022-08-05T06:00:57.551Z,18.51
2022-08-05T06:03:40.718Z,18.46
2022-08-05T06:05:28.358Z,18.47
2022-08-05T06:07:41.937Z,18.52
2022-08-05T06:09:59.874Z,18.58
2022-08-05T06:12:02.874Z,18.56
2022-08-05T06:14:04.774Z,18.56
2022-08-05T06:16:31.068Z,18.54
2022-08-05T06:18:31.068Z,18.52
2022-08-05T06:20:33.419Z,18.52
2022-08-05T06:22:37.395Z,18.49
2022-08-05T06:24:46.759Z,18.50
2022-08-05T06:26:52.280Z,18.52
2022-08-05T06:28:54.998Z,18.49
2022-08-05T06:30:56.738Z,18.48
2022-08-05T06:32:59.015Z,18.53
2022-08-05T06:35:06.106Z,18.49
2022-08-05T06:37:58.354Z,18.51
2022-08-05T06:39:44.183Z,18.52
2022-08-05T06:41:45.992Z,18.54
2022-08-05T06:43:57.440Z,18.51
2022-08-05T06:46:03.992Z,18.54
2022-08-05T06:48:44.210Z,18.56
2022-08-05T06:50:31.312Z,18.58
2022-08-05T06:52:37.759Z,18.58
2022-08-05T06:54:40.028Z,18.59
2022-08-05T06:56:41.754Z,18.57
2022-08-05T06:58:57.322Z,18.61
2022-08-05T07:01:00.368Z,18.63
2022-08-05T07:03:02.085Z,18.63
2022-08-05T07:05:03.858Z,18.70
2022-08-05T07:07:24.125Z,18.67
2022-08-05T07:09:40.626Z,18.71
2022-08-05T07:11:49.362Z,18.69
2022-08-05T07:14:15.454Z,18.69
2022-08-05T07:18:01.082Z,18.75
2022-08-05T07:19:02.909Z,18.74
2022-08-05T07:21:06.975Z,18.74
2022-08-05T07:23:13.108Z,18.81
2022-08-05T07:25:54.908Z,18.79
2022-08-05T07:27:57.251Z,18.83
2022-08-05T07:30:22.306Z,18.86
2022-08-05T07:32:26.501Z,18.89
2022-08-05T07:34:29.714Z,18.91
2022-08-05T07:36:33.562Z,18.89
2022-08-05T07:38:43.549Z,18.91
2022-08-05T07:40:46.512Z,18.96
2022-08-05T07:42:57.740Z,19.02
2022-08-05T07:45:01.227Z,18.99
2022-08-05T07:47:02.979Z,19.02
2022-08-05T07:49:09.687Z,19.05
2022-08-05T07:51:23.355Z,19.08
2022-08-05T07:53:37.029Z,19.09
2022-08-05T07:56:05.795Z,19.08
2022-08-05T07:58:54.499Z,19.05
2022-08-05T08:00:36.401Z,19.06
2022-08-05T08:03:13.609Z,19.12
2022-08-05T08:05:00.535Z,19.11
2022-08-05T08:07:05.520Z,19.16
2022-08-05T08:09:08.950Z,19.20
2022-08-05T08:11:10.782Z,19.23
2022-08-05T08:13:22.046Z,19.27
2022-08-05T08:16:33.331Z,19.32
2022-08-05T08:17:53.526Z,19.33
2022-08-05T08:20:42.517Z,19.39
2022-08-05T08:22:17.081Z,19.37
2022-08-05T08:24:18.796Z,19.46
2022-08-05T08:26:26.885Z,19.50
2022-08-05T08:28:37.166Z,19.53
2022-08-05T08:30:53.594Z,19.60
2022-08-05T08:32:55.277Z,19.63
2022-08-05T08:34:57.791Z,19.68
2022-08-05T08:37:04.904Z,19.73
2022-08-05T08:39:15.369Z,19.81
2022-08-05T08:41:18.314Z,19.81
2022-08-05T08:45:18.522Z,19.80
2022-08-05T08:45:46.517Z,19.79
2022-08-05T08:48:07.517Z,19.78
2022-08-05T08:50:30.092Z,19.83
2022-08-05T08:52:36.640Z,19.85
2022-08-05T08:54:42.148Z,19.92
2022-08-05T08:56:47.870Z,19.87
2022-08-05T08:58:52.563Z,19.97
2022-08-05T09:00:54.512Z,20.03
2022-08-05T09:02:58.264Z,20.13
2022-08-05T09:05:17.278Z,20.17
2022-08-05T09:07:28.381Z,20.16
2022-08-05T09:09:35.478Z,20.18
2022-08-05T09:11:51.345Z,20.34
2022-08-05T09:14:09.382Z,20.36
2022-08-05T09:16:19.718Z,20.40
2022-08-05T09:18:21.742Z,20.49
2022-08-05T09:20:37.462Z,20.46
2022-08-05T09:23:18.900Z,20.54
2022-08-05T09:25:24.499Z,20.70
2022-08-05T09:28:04.536Z,20.74
2022-08-05T09:30:06.855Z,20.82
2022-08-05T09:32:40.771Z,20.94
2022-08-05T09:35:09.227Z,21.09
2022-08-05T09:37:18.171Z,21.23
2022-08-05T09:39:45.193Z,21.34
2022-08-05T09:42:03.698Z,21.51
2022-08-05T09:44:05.486Z,21.57
2022-08-05T09:46:27.728Z,21.63
2022-08-05T09:48:33.131Z,21.86
2022-08-05T09:50:38.790Z,22.00
2022-08-05T09:52:48.406Z,22.06
2022-08-05T09:55:55.158Z,22.27
2022-08-05T09:57:39.557Z,22.42
2022-08-05T09:59:49.587Z,22.49
2022-08-05T10:01:58.002Z,22.66
2022-08-05T10:04:10.012Z,22.73
2022-08-05T10:06:15.557Z,22.86
2022-08-05T10:08:36.660Z,22.91
2022-08-05T10:10:53.905Z,22.97
2022-08-05T10:12:58.933Z,23.09
2022-08-05T10:15:34.987Z,23.10
2022-08-05T10:17:40.046Z,23.21
2022-08-05T10:20:03.224Z,23.29
2022-08-05T10:22:08.085Z,23.36
2022-08-05T10:24:14.374Z,23.50
2022-08-05T10:26:17.441Z,23.68
2022-08-05T10:28:29.325Z,23.75
2022-08-05T10:31:20.331Z,23.85
2022-08-05T10:33:01.665Z,23.81
2022-08-05T10:35:04.989Z,23.86
2022-08-05T10:37:07.396Z,23.96
2022-08-05T10:39:25.199Z,23.89
2022-08-05T10:42:33.402Z,24.01
2022-08-05T10:44:37.068Z,24.15
2022-08-05T10:46:45.543Z,24.27
2022-08-05T10:49:01.450Z,24.37
2022-08-05T10:51:22.139Z,24.40
2022-08-05T10:53:38.136Z,24.58
2022-08-05T10:56:14.619Z,24.72
2022-08-05T10:58:36.019Z,24.94
2022-08-05T11:00:55.067Z,25.07
2022-08-05T11:03:24.720Z,25.11
2022-08-05T11:05:29.324Z,25.25
2022-08-05T11:08:02.693Z,25.34
2022-08-05T11:10:04.049Z,25.40
2022-08-05T11:12:50.488Z,25.49
2022-08-05T11:15:58.985Z,25.56
2022-08-05T11:18:00.150Z,25.70
2022-08-05T11:20:34.758Z,25.86
2022-08-05T11:22:53.876Z,25.94
2022-08-05T11:26:05.177Z,26.11
2022-08-05T11:28:17.207Z,26.16
2022-08-05T11:30:19.133Z,26.21
2022-08-05T11:32:30.621Z,26.35
2022-08-05T11:34:37.758Z,26.42
2022-08-05T11:36:46.903Z,26.54
2022-08-05T11:38:57.840Z,26.60
2022-08-05T11:41:34.736Z,26.77
2022-08-05T11:44:00.951Z,26.58
2022-08-05T11:46:23.357Z,26.68
2022-08-05T11:48:11.679Z,26.79
2022-08-05T11:50:14.470Z,26.90
2022-08-05T11:52:23.831Z,26.97
2022-08-05T11:54:34.893Z,26.97
2022-08-05T11:56:50.479Z,27.11
2022-08-05T11:58:55.579Z,27.23
2022-08-05T12:01:10.562Z,27.33
2022-08-05T12:03:31.766Z,27.39
2022-08-05T12:05:39.556Z,27.53
2022-08-05T12:08:07.485Z,27.68
2022-08-05T12:10:09.626Z,27.73
2022-08-05T12:12:13.402Z,27.64
2022-08-05T12:14:15.286Z,27.67
2022-08-05T12:16:20.120Z,27.56
2022-08-05T12:18:33.176Z,27.65
2022-08-05T12:20:38.655Z,27.74
2022-08-05T12:22:40.513Z,27.87
2022-08-05T12:24:50.650Z,27.86
2022-08-05T12:26:54.134Z,27.85
2022-08-05T12:28:56.732Z,27.84
2022-08-05T12:31:02.291Z,27.68
2022-08-05T12:33:06.924Z,27.72
2022-08-05T12:35:09.614Z,27.61
2022-08-05T12:37:17.040Z,27.57
2022-08-05T12:39:34.607Z,27.55
2022-08-05T12:41:43.931Z,27.58
2022-08-05T12:43:58.480Z,27.63
2022-08-05T12:46:00.203Z,27.57
2022-08-05T12:48:27.716Z,27.70
2022-08-05T12:50:34.611Z,27.82
2022-08-05T12:52:39.506Z,27.93
2022-08-05T12:54:46.193Z,27.91
2022-08-05T12:56:58.826Z,28.09
2022-08-05T12:59:20.811Z,28.10
2022-08-05T13:02:00.873Z,28.12
2022-08-05T13:03:51.622Z,28.05
2022-08-05T13:05:53.807Z,27.99
2022-08-05T13:08:00.030Z,28.00
2022-08-05T13:10:10.574Z,27.97
2022-08-05T13:12:16.292Z,28.03
2022-08-05T13:14:25.071Z,27.99
2022-08-05T13:16:56.905Z,27.85
2022-08-05T13:18:59.141Z,27.84
2022-08-05T13:21:00.872Z,27.84
2022-08-05T13:23:02.686Z,27.94
2022-08-05T13:25:19.377Z,28.01
2022-08-05T13:27:38.315Z,27.97
2022-08-05T13:29:40.531Z,27.88
2022-08-05T13:32:03.951Z,27.74
2022-08-05T13:34:22.502Z,27.58
2022-08-05T13:36:27.199Z,27.57
2022-08-05T13:38:36.329Z,27.73
2022-08-05T13:40:50.015Z,27.84
2022-08-05T13:42:55.537Z,27.95
2022-08-05T13:44:57.859Z,27.86
2022-08-05T13:47:02.456Z,27.86
2022-08-05T13:49:11.560Z,27.97
2022-08-05T13:51:14.098Z,27.90
2022-08-05T13:53:16.238Z,27.84
2022-08-05T13:55:41.523Z,27.66
2022-08-05T13:57:50.556Z,27.73
2022-08-05T14:00:07.087Z,27.80
2022-08-05T14:02:10.498Z,27.70
2022-08-05T14:04:40.360Z,27.80
2022-08-05T14:06:47.820Z,27.71
2022-08-05T14:08:59.389Z,27.64
2022-08-05T14:11:20.623Z,27.56
2022-08-05T14:13:23.561Z,27.75
2022-08-05T14:16:05.295Z,27.72
2022-08-05T14:17:47.838Z,27.63
2022-08-05T14:19:55.454Z,27.54
2022-08-05T14:22:09.403Z,27.73
2022-08-05T14:24:13.710Z,27.83
2022-08-05T14:26:38.286Z,28.07
2022-08-05T14:28:52.263Z,28.33
2022-08-05T14:30:55.313Z,28.60
2022-08-05T14:32:57.194Z,28.86
2022-08-05T14:34:59.796Z,29.17
2022-08-05T14:37:01.926Z,29.43
2022-08-05T14:39:05.872Z,29.65
2022-08-05T14:41:12.939Z,29.66
2022-08-05T14:43:19.493Z,29.83
2022-08-05T14:45:21.372Z,30.00
2022-08-05T14:48:04.176Z,30.12
2022-08-05T14:49:59.199Z,30.25
2022-08-05T14:52:02.491Z,30.46
2022-08-05T14:54:26.435Z,30.58
2022-08-05T14:56:26.226Z,30.80
2022-08-05T14:58:27.911Z,30.87
2022-08-05T15:00:32.542Z,30.96
2022-08-05T15:02:34.361Z,31.06
2022-08-05T15:04:37.231Z,30.92
2022-08-05T15:06:49.292Z,30.97
2022-08-05T15:08:59.009Z,30.95
2022-08-05T15:11:07.901Z,30.61
2022-08-05T15:13:10.468Z,30.50
2022-08-05T15:15:15.648Z,30.25
2022-08-05T15:17:44.959Z,30.14
2022-08-05T15:19:48.856Z,29.98
2022-08-05T15:21:51.763Z,29.78
2022-08-05T15:23:55.131Z,29.69
2022-08-05T15:26:02.397Z,29.53
2022-08-05T15:28:05.460Z,29.27
2022-08-05T15:30:08.668Z,29.08
2022-08-05T15:32:11.219Z,28.91
2022-08-05T15:34:32.375Z,28.90
2022-08-05T15:36:35.192Z,28.96
2022-08-05T15:38:40.935Z,29.10
2022-08-05T15:41:03.676Z,29.34
2022-08-05T15:43:12.654Z,29.62
2022-08-05T15:45:37.770Z,29.86
2022-08-05T15:47:42.573Z,30.11
2022-08-05T15:49:56.877Z,30.27
2022-08-05T15:52:13.655Z,30.26
2022-08-05T15:54:18.744Z,30.08
2022-08-05T15:56:21.396Z,29.87
2022-08-05T15:58:23.367Z,29.70
2022-08-05T16:00:30.523Z,29.48
2022-08-05T16:02:45.561Z,29.32
2022-08-05T16:04:49.249Z,29.09
2022-08-05T16:06:51.004Z,28.84
2022-08-05T16:08:53.630Z,28.66
2022-08-05T16:10:57.248Z,28.48
2022-08-05T16:12:58.935Z,28.28
2022-08-05T16:15:01.821Z,28.03
2022-08-05T16:17:04.350Z,27.89
2022-08-05T16:19:06.588Z,27.75
2022-08-05T16:21:11.650Z,27.64
2022-08-05T16:23:15.415Z,27.53
2022-08-05T16:25:17.510Z,27.41
2022-08-05T16:27:19.519Z,27.30
2022-08-05T16:29:44.150Z,27.14
2022-08-05T16:31:56.887Z,27.04
2022-08-05T16:33:59.361Z,26.98
2022-08-05T16:36:04.060Z,27.04
2022-08-05T16:38:24.556Z,27.01
2022-08-05T16:40:29.039Z,27.06
2022-08-05T16:42:31.607Z,27.15
2022-08-05T16:44:33.566Z,27.21
2022-08-05T16:46:36.381Z,27.20
2022-08-05T16:48:50.383Z,27.32
2022-08-05T16:50:52.111Z,27.20
2022-08-05T16:52:56.547Z,27.15
2022-08-05T16:54:58.369Z,27.01
2022-08-05T16:57:00.476Z,26.97
2022-08-05T16:59:08.519Z,26.81
2022-08-05T17:01:10.865Z,26.65
2022-08-05T17:03:19.752Z,26.57
2022-08-05T17:05:22.802Z,26.46
2022-08-05T17:07:43.521Z,26.48
2022-08-05T17:10:04.173Z,26.42
2022-08-05T17:12:06.089Z,26.38
2022-08-05T17:14:09.304Z,26.42
2022-08-05T17:16:33.688Z,26.42
2022-08-05T17:18:38.987Z,26.39
2022-08-05T17:20:41.052Z,26.33
2022-08-05T17:22:42.833Z,26.31
2022-08-05T17:24:57.192Z,26.28
2022-08-05T17:27:00.184Z,26.22
2022-08-05T17:29:04.380Z,26.15
2022-08-05T17:31:24.459Z,26.09
2022-08-05T17:33:38.851Z,26.00
2022-08-05T17:36:07.793Z,25.96
2022-08-05T17:38:11.768Z,25.92
2022-08-05T17:40:22.486Z,25.83
2022-08-05T17:42:29.794Z,25.79
2022-08-05T17:44:32.717Z,25.76
2022-08-05T17:46:34.477Z,25.71
2022-08-05T17:48:36.212Z,25.74
2022-08-05T17:50:38.562Z,25.76
2022-08-05T17:52:52.882Z,25.72
2022-08-05T17:54:56.566Z,25.74
2022-08-05T17:56:58.567Z,25.70
2022-08-05T17:59:00.435Z,25.66
2022-08-05T18:01:02.189Z,25.71
2022-08-05T18:03:11.753Z,25.74
2022-08-05T18:05:27.972Z,25.75
2022-08-05T18:07:40.981Z,25.79
2022-08-05T18:09:59.761Z,25.76
2022-08-05T18:12:02.671Z,25.76
2022-08-05T18:14:13.217Z,25.69
2022-08-05T18:16:15.748Z,25.68
2022-08-05T18:18:22.582Z,25.63
2022-08-05T18:20:32.013Z,25.62
2022-08-05T18:22:45.937Z,25.58
2022-08-05T18:24:55.864Z,25.55
2022-08-05T18:26:58.190Z,25.50
2022-08-05T18:29:00.306Z,25.46
2022-08-05T18:31:02.805Z,25.45
2022-08-05T18:33:04.908Z,25.41
2022-08-05T18:35:07.483Z,25.38
2022-08-05T18:37:34.364Z,25.31
2022-08-05T18:40:33.737Z,25.26
2022-08-05T18:42:04.664Z,25.18
2022-08-05T18:44:09.604Z,25.16
2022-08-05T18:46:11.391Z,25.13
2022-08-05T18:48:30.688Z,25.06
2022-08-05T18:50:54.119Z,25.02
2022-08-05T18:52:56.811Z,24.99
2022-08-05T18:54:59.611Z,24.93
2022-08-05T18:57:02.088Z,24.91
2022-08-05T18:59:42.014Z,24.85
2022-08-05T19:01:47.238Z,24.79
2022-08-05T19:03:53.331Z,24.72
2022-08-05T19:06:11.363Z,24.78
2022-08-05T19:08:19.745Z,24.72
2022-08-05T19:10:28.011Z,24.64
2022-08-05T19:12:33.662Z,24.58
2022-08-05T19:14:37.471Z,24.57
2022-08-05T19:16:54.208Z,24.51
2022-08-05T19:18:57.159Z,24.47
2022-08-05T19:20:59.817Z,24.45
2022-08-05T19:23:01.598Z,24.38
2022-08-05T19:25:10.771Z,24.30
2022-08-05T19:27:27.737Z,24.26
2022-08-05T19:29:35.699Z,24.23
2022-08-05T19:31:44.804Z,24.19
2022-08-05T19:33:56.539Z,24.17
2022-08-05T19:35:59.149Z,24.09
2022-08-05T19:38:06.550Z,24.08
2022-08-05T19:40:11.138Z,24.04
2022-08-05T19:42:15.205Z,24.01
2022-08-05T19:44:19.175Z,23.97
2022-08-05T19:46:29.772Z,23.94
2022-08-05T19:48:34.445Z,23.83
2022-08-05T19:50:41.290Z,23.85
2022-08-05T19:52:47.766Z,23.81
2022-08-05T19:54:51.127Z,23.80
2022-08-05T19:56:54.236Z,23.75
2022-08-05T19:58:57.238Z,23.67
2022-08-05T20:01:27.215Z,23.56
2022-08-05T20:03:38.804Z,23.52
2022-08-05T20:05:51.706Z,23.54
2022-08-05T20:07:59.115Z,23.44
2022-08-05T20:10:01.863Z,23.31
2022-08-05T20:12:11.852Z,23.31
2022-08-05T20:14:19.087Z,23.25
2022-08-05T20:16:31.282Z,23.24
2022-08-05T20:18:35.989Z,23.16
2022-08-05T20:20:42.988Z,23.20
2022-08-05T20:22:44.723Z,23.10
2022-08-05T20:24:48.796Z,23.10
2022-08-05T20:26:50.705Z,23.05
2022-08-05T20:28:56.252Z,23.03
2022-08-05T20:30:58.791Z,22.98
2022-08-05T20:33:00.694Z,22.94
2022-08-05T20:35:02.581Z,22.94
2022-08-05T20:37:04.368Z,22.86
2022-08-05T20:39:20.188Z,22.83
2022-08-05T20:41:26.705Z,22.78
2022-08-05T20:43:29.333Z,22.79
2022-08-05T20:45:57.058Z,22.76
2022-08-05T20:48:02.033Z,22.74
2022-08-05T20:50:07.459Z,22.68
2022-08-05T20:52:10.472Z,22.70
2022-08-05T20:54:14.111Z,22.65
2022-08-05T20:56:16.235Z,22.58
2022-08-05T20:58:30.018Z,22.56
2022-08-05T21:00:41.102Z,22.54
2022-08-05T21:02:56.962Z,22.50
2022-08-05T21:05:02.299Z,22.47
2022-08-05T21:07:04.410Z,22.47
2022-08-05T21:09:07.083Z,22.41
2022-08-05T21:11:12.121Z,22.38
2022-08-05T21:13:16.065Z,22.33
2022-08-05T21:15:33.839Z,22.25
2022-08-05T21:17:36.120Z,22.17
2022-08-05T21:19:46.978Z,22.19
2022-08-05T21:21:50.501Z,22.15
2022-08-05T21:23:54.962Z,22.14
2022-08-05T21:25:58.018Z,22.07
2022-08-05T21:28:02.450Z,22.04
2022-08-05T21:30:04.885Z,22.01
2022-08-05T21:32:06.701Z,21.99
2022-08-05T21:34:08.411Z,21.96
2022-08-05T21:36:12.968Z,21.93
2022-08-05T21:38:21.054Z,21.86
2022-08-05T21:40:23.839Z,21.87
2022-08-05T21:42:41.186Z,21.79
2022-08-05T21:44:47.679Z,21.79
2022-08-05T21:46:52.207Z,21.73
2022-08-05T21:48:59.834Z,21.71
2022-08-05T21:51:01.862Z,21.67
2022-08-05T21:53:16.416Z,21.67
2022-08-05T21:55:23.717Z,21.58
2022-08-05T21:57:42.807Z,21.59
2022-08-05T22:00:01.919Z,21.57
2022-08-05T22:02:06.542Z,21.54
2022-08-05T22:04:13.541Z,21.51
2022-08-05T22:06:22.821Z,21.47
2022-08-05T22:08:26.500Z,21.43
2022-08-05T22:10:28.524Z,21.39
2022-08-05T22:12:32.214Z,21.38
2022-08-05T22:14:38.120Z,21.20
2022-08-05T22:16:41.827Z,21.24
2022-08-05T22:18:54.110Z,21.25
2022-08-05T22:21:00.527Z,21.24
2022-08-05T22:23:25.336Z,21.20
2022-08-05T22:26:11.270Z,21.16
2022-08-05T22:28:13.852Z,21.08
2022-08-05T22:30:20.039Z,21.12
2022-08-05T22:32:21.741Z,21.08
2022-08-05T22:34:28.464Z,21.03
2022-08-05T22:36:30.842Z,21.02
2022-08-05T22:38:32.707Z,20.96
2022-08-05T22:40:36.183Z,20.96
2022-08-05T22:42:41.271Z,20.95
2022-08-05T22:44:56.961Z,20.91
2022-08-05T22:46:59.007Z,20.79
2022-08-05T22:49:00.740Z,20.82
2022-08-05T22:51:06.992Z,20.77
2022-08-05T22:53:10.406Z,20.79
2022-08-05T22:55:21.109Z,20.80
2022-08-05T22:57:23.286Z,20.73
2022-08-05T22:59:45.931Z,20.69
2022-08-05T23:02:04.610Z,20.66
2022-08-05T23:04:08.284Z,20.60
2022-08-05T23:06:11.534Z,20.59
2022-08-05T23:08:13.381Z,20.58
2022-08-05T23:10:20.099Z,20.61
2022-08-05T23:12:24.430Z,20.51
2022-08-05T23:14:32.099Z,20.50
2022-08-05T23:16:53.101Z,20.49
2022-08-05T23:18:54.889Z,20.46
2022-08-05T23:20:57.459Z,20.45
2022-08-05T23:23:05.986Z,20.42
2022-08-05T23:25:11.492Z,20.40
2022-08-05T23:27:19.261Z,20.35
2022-08-05T23:29:21.452Z,20.32
2022-08-05T23:31:23.325Z,20.29
2022-08-05T23:33:26.452Z,20.25
2022-08-05T23:35:50.736Z,20.23
2022-08-05T23:37:53.661Z,20.23
2022-08-05T23:39:56.975Z,20.22
2022-08-05T23:41:59.245Z,20.22
2022-08-05T23:44:06.199Z,20.21
2022-08-05T23:46:29.717Z,20.18
2022-08-05T23:48:31.615Z,20.13
2022-08-05T23:50:34.561Z,20.11
2022-08-05T23:52:49.946Z,20.03
2022-08-05T23:54:54.965Z,20.04
2022-08-05T23:57:03.774Z,20.01
2022-08-05T23:59:08.402Z,20.03
